This is the latest recevied weather packets stored in our database for station/object HS6PNA-1. If no packets are shown the sender has not sent any weather packets the latest 10 day(s).
| Time | Temp. | Humidity | Pressure | Rain* | Wind** | Luminosity | Snow |
|---|---|---|---|---|---|---|---|
| 1777947019 | 31.67° C | 69% | 1007 hPa | - | - | 159 W/m² | - |
| 1777946094 | 31.11° C | 74% | 1008 hPa | - | - | 86 W/m² | - |
| 1777945170 | 31.11° C | 73% | 1007 hPa | - | - | 102 W/m² | - |
| 1777944245 | 30.56° C | 77% | 1007 hPa | - | - | 86 W/m² | - |
| 1777943321 | 30° C | 77% | 1007 hPa | - | - | 69 W/m² | - |
| 1777942396 | 30° C | 79% | 1007 hPa | - | - | 49 W/m² | - |
| 1777941472 | 28.89° C | 83% | 1007 hPa | - | - | 39 W/m² | - |
| 1777940547 | 29.44° C | 81% | 1007 hPa | - | - | 39 W/m² | - |
| 1777939623 | 28.89° C | 85% | 1007 hPa | - | - | 30 W/m² | - |
| 1777938698 | 28.89° C | 82% | 1006 hPa | - | - | 19 W/m² | - |
| 1777937774 | 28.89° C | 83% | 1006 hPa | - | - | 12 W/m² | - |
| 1777936957 | 28.89° C | 82% | 1006 hPa | - | - | 5 W/m² | - |
| 1777936032 | 28.33° C | 85% | 1005 hPa | - | - | 2 W/m² | - |
| 1777935108 | 28.33° C | 85% | 1005 hPa | - | - | 0 W/m² | - |
| 1777934183 | 28.89° C | 83% | 1006 hPa | - | - | 0 W/m² | - |
| 1777933259 | 28.89° C | 83% | 1005 hPa | - | - | 0 W/m² | - |
| 1777932332 | 28.33° C | 81% | 1005 hPa | - | - | 0 W/m² | - |
| 1777931407 | 28.89° C | 81% | 1005 hPa | - | - | 0 W/m² | - |
| 1777930482 | 28.33° C | 83% | 1005 hPa | - | - | 0 W/m² | - |
| 1777929558 | 28.33° C | 81% | 1005 hPa | - | - | 0 W/m² | - |
| 1777928633 | 28.33° C | 84% | 1005 hPa | - | - | 0 W/m² | - |
| 1777927709 | 28.33° C | 83% | 1006 hPa | - | - | 0 W/m² | - |
| 1777926785 | 29.44° C | 79% | 1006 hPa | - | - | 0 W/m² | - |
| 1777925860 | 29.44° C | 79% | 1006 hPa | - | - | 0 W/m² | - |
| 1777924936 | 29.44° C | 78% | 1006 hPa | - | - | 0 W/m² | - |
* Rain since midnight (hover to see other rain measurements)
** Current wind speed in m/s (hover to see current wind gust speed)